sensor_id;sensor_type;location;lat;lon;timestamp;P1;durP1;ratioP1;P2;durP2;ratioP2
31298;SDS011;17927;52.350;13.402;2024-03-22T00:01:45;12.55;;;10.73;;
31298;SDS011;17927;52.350;13.402;2024-03-22T00:04:11;14.63;;;10.75;;
31298;SDS011;17927;52.350;13.402;2024-03-22T00:06:36;12.25;;;9.85;;
31298;SDS011;17927;52.350;13.402;2024-03-22T00:09:02;15.23;;;12.18;;
31298;SDS011;17927;52.350;13.402;2024-03-22T00:11:39;14.10;;;11.55;;
31298;SDS011;17927;52.350;13.402;2024-03-22T00:14:05;13.93;;;11.70;;
31298;SDS011;17927;52.350;13.402;2024-03-22T00:16:30;14.55;;;11.48;;
31298;SDS011;17927;52.350;13.402;2024-03-22T00:18:55;17.08;;;10.70;;
31298;SDS011;17927;52.350;13.402;2024-03-22T00:21:21;12.73;;;10.90;;
31298;SDS011;17927;52.350;13.402;2024-03-22T00:23:47;14.40;;;11.23;;
31298;SDS011;17927;52.350;13.402;2024-03-22T00:26:13;15.00;;;11.27;;
31298;SDS011;17927;52.350;13.402;2024-03-22T00:28:38;13.95;;;10.63;;
31298;SDS011;17927;52.350;13.402;2024-03-22T00:31:03;15.77;;;11.23;;
31298;SDS011;17927;52.350;13.402;2024-03-22T00:33:29;11.93;;;10.15;;
31298;SDS011;17927;52.350;13.402;2024-03-22T00:35:54;12.63;;;10.25;;
31298;SDS011;17927;52.350;13.402;2024-03-22T00:38:19;14.93;;;10.95;;
31298;SDS011;17927;52.350;13.402;2024-03-22T00:40:44;13.68;;;10.80;;
31298;SDS011;17927;52.350;13.402;2024-03-22T00:43:10;12.23;;;10.10;;
31298;SDS011;17927;52.350;13.402;2024-03-22T00:45:35;11.90;;;9.95;;
31298;SDS011;17927;52.350;13.402;2024-03-22T00:48:00;14.25;;;10.40;;
31298;SDS011;17927;52.350;13.402;2024-03-22T00:50:25;15.20;;;10.93;;
31298;SDS011;17927;52.350;13.402;2024-03-22T00:52:51;15.32;;;10.77;;
31298;SDS011;17927;52.350;13.402;2024-03-22T00:55:17;16.60;;;11.65;;
31298;SDS011;17927;52.350;13.402;2024-03-22T00:57:43;15.35;;;11.07;;
31298;SDS011;17927;52.350;13.402;2024-03-22T01:00:08;19.65;;;12.00;;
31298;SDS011;17927;52.350;13.402;2024-03-22T01:02:34;14.88;;;11.00;;
31298;SDS011;17927;52.350;13.402;2024-03-22T01:05:00;12.52;;;10.50;;
31298;SDS011;17927;52.350;13.402;2024-03-22T01:07:25;14.02;;;10.52;;
31298;SDS011;17927;52.350;13.402;2024-03-22T01:09:50;13.57;;;10.68;;
31298;SDS011;17927;52.350;13.402;2024-03-22T01:12:15;16.60;;;12.02;;
31298;SDS011;17927;52.350;13.402;2024-03-22T01:14:40;15.60;;;10.98;;
31298;SDS011;17927;52.350;13.402;2024-03-22T01:17:06;14.07;;;10.73;;
31298;SDS011;17927;52.350;13.402;2024-03-22T01:19:31;17.10;;;11.52;;
31298;SDS011;17927;52.350;13.402;2024-03-22T01:21:56;14.80;;;11.63;;
31298;SDS011;17927;52.350;13.402;2024-03-22T01:24:21;14.88;;;11.25;;
31298;SDS011;17927;52.350;13.402;2024-03-22T01:26:47;14.30;;;11.93;;
31298;SDS011;17927;52.350;13.402;2024-03-22T01:29:13;18.63;;;12.93;;
31298;SDS011;17927;52.350;13.402;2024-03-22T01:31:39;14.70;;;11.02;;
31298;SDS011;17927;52.350;13.402;2024-03-22T01:34:04;16.98;;;12.07;;
31298;SDS011;17927;52.350;13.402;2024-03-22T01:36:30;18.08;;;11.90;;
31298;SDS011;17927;52.350;13.402;2024-03-22T01:38:55;14.55;;;11.57;;
31298;SDS011;17927;52.350;13.402;2024-03-22T01:41:20;16.33;;;12.32;;
31298;SDS011;17927;52.350;13.402;2024-03-22T01:43:45;16.30;;;11.57;;
31298;SDS011;17927;52.350;13.402;2024-03-22T01:46:11;19.88;;;13.13;;
31298;SDS011;17927;52.350;13.402;2024-03-22T01:48:36;19.67;;;12.40;;
31298;SDS011;17927;52.350;13.402;2024-03-22T01:51:02;16.55;;;12.43;;
31298;SDS011;17927;52.350;13.402;2024-03-22T01:53:27;16.42;;;11.98;;
31298;SDS011;17927;52.350;13.402;2024-03-22T01:55:53;14.20;;;11.52;;
31298;SDS011;17927;52.350;13.402;2024-03-22T01:58:18;17.77;;;12.18;;
31298;SDS011;17927;52.350;13.402;2024-03-22T02:00:43;18.00;;;13.15;;
31298;SDS011;17927;52.350;13.402;2024-03-22T02:03:09;17.92;;;12.60;;
31298;SDS011;17927;52.350;13.402;2024-03-22T02:05:34;16.60;;;12.70;;
31298;SDS011;17927;52.350;13.402;2024-03-22T02:07:59;19.25;;;13.60;;
31298;SDS011;17927;52.350;13.402;2024-03-22T02:10:24;18.42;;;12.50;;
31298;SDS011;17927;52.350;13.402;2024-03-22T02:12:50;16.00;;;12.45;;
31298;SDS011;17927;52.350;13.402;2024-03-22T02:15:15;18.17;;;12.82;;
31298;SDS011;17927;52.350;13.402;2024-03-22T02:17:40;17.33;;;13.10;;
31298;SDS011;17927;52.350;13.402;2024-03-22T02:20:06;19.60;;;12.85;;
31298;SDS011;17927;52.350;13.402;2024-03-22T02:22:32;17.63;;;13.00;;
31298;SDS011;17927;52.350;13.402;2024-03-22T02:24:57;17.17;;;12.38;;
31298;SDS011;17927;52.350;13.402;2024-03-22T02:27:24;17.13;;;12.00;;
31298;SDS011;17927;52.350;13.402;2024-03-22T02:29:50;15.88;;;11.18;;
31298;SDS011;17927;52.350;13.402;2024-03-22T02:32:15;17.80;;;13.20;;
31298;SDS011;17927;52.350;13.402;2024-03-22T02:34:40;17.05;;;12.50;;
31298;SDS011;17927;52.350;13.402;2024-03-22T02:37:05;16.42;;;12.48;;
31298;SDS011;17927;52.350;13.402;2024-03-22T02:39:31;17.00;;;12.45;;
31298;SDS011;17927;52.350;13.402;2024-03-22T02:41:56;20.55;;;12.15;;
31298;SDS011;17927;52.350;13.402;2024-03-22T02:47:11;15.88;;;12.15;;
31298;SDS011;17927;52.350;13.402;2024-03-22T02:49:39;18.63;;;11.38;;
31298;SDS011;17927;52.350;13.402;2024-03-22T02:52:04;16.85;;;12.35;;
31298;SDS011;17927;52.350;13.402;2024-03-22T02:54:29;16.85;;;12.25;;
31298;SDS011;17927;52.350;13.402;2024-03-22T02:56:55;17.98;;;12.20;;
31298;SDS011;17927;52.350;13.402;2024-03-22T02:59:20;16.15;;;11.75;;
31298;SDS011;17927;52.350;13.402;2024-03-22T03:01:45;17.77;;;11.88;;
31298;SDS011;17927;52.350;13.402;2024-03-22T03:04:10;16.85;;;12.23;;
31298;SDS011;17927;52.350;13.402;2024-03-22T03:06:36;16.88;;;11.57;;
31298;SDS011;17927;52.350;13.402;2024-03-22T03:09:01;16.88;;;12.50;;
31298;SDS011;17927;52.350;13.402;2024-03-22T03:11:27;15.75;;;12.10;;
31298;SDS011;17927;52.350;13.402;2024-03-22T03:13:52;18.45;;;12.48;;
31298;SDS011;17927;52.350;13.402;2024-03-22T03:16:17;16.48;;;12.18;;
31298;SDS011;17927;52.350;13.402;2024-03-22T03:18:42;16.95;;;11.85;;
31298;SDS011;17927;52.350;13.402;2024-03-22T03:21:08;17.45;;;12.52;;
31298;SDS011;17927;52.350;13.402;2024-03-22T03:23:33;16.95;;;11.07;;
31298;SDS011;17927;52.350;13.402;2024-03-22T03:25:58;20.90;;;12.20;;
31298;SDS011;17927;52.350;13.402;2024-03-22T03:28:24;18.02;;;12.20;;
31298;SDS011;17927;52.350;13.402;2024-03-22T03:30:51;18.85;;;12.80;;
31298;SDS011;17927;52.350;13.402;2024-03-22T03:33:16;19.05;;;12.32;;
31298;SDS011;17927;52.350;13.402;2024-03-22T03:35:44;18.33;;;11.93;;
31298;SDS011;17927;52.350;13.402;2024-03-22T03:38:10;20.25;;;12.25;;
31298;SDS011;17927;52.350;13.402;2024-03-22T03:40:35;15.27;;;11.13;;
31298;SDS011;17927;52.350;13.402;2024-03-22T03:43:01;16.67;;;11.73;;
31298;SDS011;17927;52.350;13.402;2024-03-22T03:45:26;18.00;;;12.25;;
31298;SDS011;17927;52.350;13.402;2024-03-22T03:47:51;20.58;;;13.93;;
31298;SDS011;17927;52.350;13.402;2024-03-22T03:50:16;16.98;;;12.70;;
31298;SDS011;17927;52.350;13.402;2024-03-22T03:52:42;28.10;;;14.10;;
31298;SDS011;17927;52.350;13.402;2024-03-22T03:55:07;20.52;;;13.73;;
31298;SDS011;17927;52.350;13.402;2024-03-22T03:57:32;24.55;;;14.60;;
31298;SDS011;17927;52.350;13.402;2024-03-22T03:59:57;22.92;;;14.45;;
31298;SDS011;17927;52.350;13.402;2024-03-22T04:02:23;21.42;;;13.90;;
31298;SDS011;17927;52.350;13.402;2024-03-22T04:04:51;21.60;;;14.02;;
31298;SDS011;17927;52.350;13.402;2024-03-22T04:07:17;25.40;;;15.38;;
31298;SDS011;17927;52.350;13.402;2024-03-22T04:09:43;23.45;;;14.15;;
31298;SDS011;17927;52.350;13.402;2024-03-22T04:12:08;24.40;;;15.02;;
31298;SDS011;17927;52.350;13.402;2024-03-22T04:14:33;23.27;;;13.65;;
31298;SDS011;17927;52.350;13.402;2024-03-22T04:16:59;20.58;;;12.77;;
31298;SDS011;17927;52.350;13.402;2024-03-22T04:19:27;21.55;;;13.25;;
31298;SDS011;17927;52.350;13.402;2024-03-22T04:21:52;17.98;;;12.50;;
31298;SDS011;17927;52.350;13.402;2024-03-22T04:24:18;24.15;;;14.13;;
31298;SDS011;17927;52.350;13.402;2024-03-22T04:26:43;18.52;;;12.38;;
31298;SDS011;17927;52.350;13.402;2024-03-22T04:29:08;19.38;;;13.23;;
31298;SDS011;17927;52.350;13.402;2024-03-22T04:31:33;21.15;;;12.60;;
31298;SDS011;17927;52.350;13.402;2024-03-22T04:33:58;18.50;;;12.32;;
31298;SDS011;17927;52.350;13.402;2024-03-22T04:36:24;20.15;;;11.98;;
31298;SDS011;17927;52.350;13.402;2024-03-22T04:38:49;18.20;;;12.43;;
31298;SDS011;17927;52.350;13.402;2024-03-22T04:41:14;19.63;;;12.02;;
31298;SDS011;17927;52.350;13.402;2024-03-22T04:43:39;16.48;;;11.13;;
31298;SDS011;17927;52.350;13.402;2024-03-22T04:46:05;17.50;;;11.85;;
31298;SDS011;17927;52.350;13.402;2024-03-22T04:48:30;16.35;;;10.93;;
31298;SDS011;17927;52.350;13.402;2024-03-22T04:50:55;14.88;;;11.23;;
31298;SDS011;17927;52.350;13.402;2024-03-22T04:53:21;16.85;;;10.85;;
31298;SDS011;17927;52.350;13.402;2024-03-22T04:55:46;19.60;;;11.55;;
31298;SDS011;17927;52.350;13.402;2024-03-22T04:58:13;15.52;;;10.95;;
31298;SDS011;17927;52.350;13.402;2024-03-22T05:00:42;16.35;;;10.45;;
31298;SDS011;17927;52.350;13.402;2024-03-22T05:03:08;22.52;;;11.27;;
31298;SDS011;17927;52.350;13.402;2024-03-22T05:05:33;19.20;;;11.98;;
31298;SDS011;17927;52.350;13.402;2024-03-22T05:07:59;18.73;;;11.60;;
31298;SDS011;17927;52.350;13.402;2024-03-22T05:10:24;15.35;;;11.00;;
31298;SDS011;17927;52.350;13.402;2024-03-22T05:12:50;22.60;;;14.80;;
31298;SDS011;17927;52.350;13.402;2024-03-22T05:15:15;18.13;;;12.32;;
31298;SDS011;17927;52.350;13.402;2024-03-22T05:17:41;20.40;;;12.13;;
31298;SDS011;17927;52.350;13.402;2024-03-22T05:20:08;18.10;;;11.27;;
31298;SDS011;17927;52.350;13.402;2024-03-22T05:22:36;15.27;;;10.32;;
31298;SDS011;17927;52.350;13.402;2024-03-22T05:25:02;19.00;;;11.95;;
31298;SDS011;17927;52.350;13.402;2024-03-22T05:27:28;16.88;;;11.48;;
31298;SDS011;17927;52.350;13.402;2024-03-22T05:29:53;20.05;;;12.10;;
31298;SDS011;17927;52.350;13.402;2024-03-22T05:32:18;27.35;;;18.52;;
31298;SDS011;17927;52.350;13.402;2024-03-22T05:34:43;23.83;;;13.90;;
31298;SDS011;17927;52.350;13.402;2024-03-22T05:37:09;20.52;;;13.88;;
31298;SDS011;17927;52.350;13.402;2024-03-22T05:39:36;25.52;;;14.75;;
31298;SDS011;17927;52.350;13.402;2024-03-22T05:42:01;17.83;;;12.00;;
31298;SDS011;17927;52.350;13.402;2024-03-22T05:44:26;18.50;;;12.73;;
31298;SDS011;17927;52.350;13.402;2024-03-22T05:46:51;16.55;;;11.35;;
31298;SDS011;17927;52.350;13.402;2024-03-22T05:49:17;17.05;;;11.30;;
31298;SDS011;17927;52.350;13.402;2024-03-22T05:51:42;18.45;;;11.15;;
31298;SDS011;17927;52.350;13.402;2024-03-22T05:54:08;18.33;;;11.93;;
31298;SDS011;17927;52.350;13.402;2024-03-22T05:56:33;19.27;;;11.93;;
31298;SDS011;17927;52.350;13.402;2024-03-22T05:58:58;17.70;;;12.43;;
31298;SDS011;17927;52.350;13.402;2024-03-22T06:01:24;19.50;;;12.13;;
31298;SDS011;17927;52.350;13.402;2024-03-22T06:03:49;17.15;;;11.60;;
31298;SDS011;17927;52.350;13.402;2024-03-22T06:06:15;17.63;;;11.75;;
31298;SDS011;17927;52.350;13.402;2024-03-22T06:08:41;18.73;;;11.90;;
31298;SDS011;17927;52.350;13.402;2024-03-22T06:11:08;15.85;;;11.57;;
31298;SDS011;17927;52.350;13.402;2024-03-22T06:13:33;15.27;;;10.55;;
31298;SDS011;17927;52.350;13.402;2024-03-22T06:15:59;17.77;;;11.73;;
31298;SDS011;17927;52.350;13.402;2024-03-22T06:18:25;17.40;;;12.40;;
31298;SDS011;17927;52.350;13.402;2024-03-22T06:20:50;20.25;;;12.13;;
31298;SDS011;17927;52.350;13.402;2024-03-22T06:23:16;20.23;;;14.05;;
31298;SDS011;17927;52.350;13.402;2024-03-22T06:25:41;26.38;;;12.30;;
31298;SDS011;17927;52.350;13.402;2024-03-22T06:28:06;19.25;;;13.10;;
31298;SDS011;17927;52.350;13.402;2024-03-22T06:30:31;21.48;;;12.25;;
31298;SDS011;17927;52.350;13.402;2024-03-22T06:32:56;19.50;;;12.73;;
31298;SDS011;17927;52.350;13.402;2024-03-22T06:35:22;19.25;;;13.05;;
31298;SDS011;17927;52.350;13.402;2024-03-22T06:37:47;19.73;;;13.60;;
31298;SDS011;17927;52.350;13.402;2024-03-22T06:40:13;18.33;;;13.07;;
31298;SDS011;17927;52.350;13.402;2024-03-22T06:42:39;22.23;;;13.35;;
31298;SDS011;17927;52.350;13.402;2024-03-22T06:45:05;20.88;;;12.85;;
31298;SDS011;17927;52.350;13.402;2024-03-22T06:47:30;20.83;;;13.43;;
31298;SDS011;17927;52.350;13.402;2024-03-22T06:49:56;23.63;;;13.60;;
31298;SDS011;17927;52.350;13.402;2024-03-22T06:52:21;19.75;;;13.00;;
31298;SDS011;17927;52.350;13.402;2024-03-22T06:54:47;21.27;;;13.63;;
31298;SDS011;17927;52.350;13.402;2024-03-22T06:57:12;17.85;;;13.65;;
31298;SDS011;17927;52.350;13.402;2024-03-22T06:59:37;21.67;;;14.55;;
31298;SDS011;17927;52.350;13.402;2024-03-22T07:02:02;20.75;;;14.02;;
31298;SDS011;17927;52.350;13.402;2024-03-22T07:04:28;20.65;;;13.90;;
31298;SDS011;17927;52.350;13.402;2024-03-22T07:06:53;22.15;;;14.15;;
31298;SDS011;17927;52.350;13.402;2024-03-22T07:09:18;20.10;;;13.45;;
31298;SDS011;17927;52.350;13.402;2024-03-22T07:11:44;19.92;;;13.98;;
31298;SDS011;17927;52.350;13.402;2024-03-22T07:14:09;23.38;;;15.15;;
31298;SDS011;17927;52.350;13.402;2024-03-22T07:16:34;19.20;;;13.90;;
31298;SDS011;17927;52.350;13.402;2024-03-22T07:19:01;21.48;;;13.93;;
31298;SDS011;17927;52.350;13.402;2024-03-22T07:21:28;20.92;;;14.55;;
31298;SDS011;17927;52.350;13.402;2024-03-22T07:23:53;23.45;;;15.93;;
31298;SDS011;17927;52.350;13.402;2024-03-22T07:26:18;20.17;;;14.15;;
31298;SDS011;17927;52.350;13.402;2024-03-22T07:28:43;21.17;;;14.43;;
31298;SDS011;17927;52.350;13.402;2024-03-22T07:31:09;21.60;;;15.13;;
31298;SDS011;17927;52.350;13.402;2024-03-22T07:33:34;23.48;;;14.80;;
31298;SDS011;17927;52.350;13.402;2024-03-22T07:36:03;19.92;;;14.23;;
31298;SDS011;17927;52.350;13.402;2024-03-22T07:38:28;21.02;;;14.63;;
31298;SDS011;17927;52.350;13.402;2024-03-22T07:40:53;20.90;;;14.38;;
31298;SDS011;17927;52.350;13.402;2024-03-22T07:43:19;32.95;;;15.38;;
31298;SDS011;17927;52.350;13.402;2024-03-22T07:45:44;20.55;;;14.57;;
31298;SDS011;17927;52.350;13.402;2024-03-22T07:48:09;20.90;;;14.32;;
31298;SDS011;17927;52.350;13.402;2024-03-22T07:50:35;22.23;;;14.15;;
31298;SDS011;17927;52.350;13.402;2024-03-22T07:53:00;20.85;;;14.48;;
31298;SDS011;17927;52.350;13.402;2024-03-22T07:55:26;22.38;;;14.95;;
31298;SDS011;17927;52.350;13.402;2024-03-22T07:57:51;20.65;;;14.40;;
31298;SDS011;17927;52.350;13.402;2024-03-22T08:00:16;18.52;;;13.25;;
31298;SDS011;17927;52.350;13.402;2024-03-22T08:02:41;24.13;;;15.07;;
31298;SDS011;17927;52.350;13.402;2024-03-22T08:05:07;20.13;;;13.90;;
31298;SDS011;17927;52.350;13.402;2024-03-22T08:07:32;20.85;;;14.65;;
31298;SDS011;17927;52.350;13.402;2024-03-22T08:09:57;22.45;;;13.82;;
31298;SDS011;17927;52.350;13.402;2024-03-22T08:12:23;20.17;;;14.10;;
31298;SDS011;17927;52.350;13.402;2024-03-22T08:14:49;21.27;;;14.00;;
31298;SDS011;17927;52.350;13.402;2024-03-22T08:17:14;24.23;;;14.45;;
31298;SDS011;17927;52.350;13.402;2024-03-22T08:19:40;21.67;;;14.77;;
31298;SDS011;17927;52.350;13.402;2024-03-22T08:22:05;19.33;;;13.57;;
31298;SDS011;17927;52.350;13.402;2024-03-22T08:24:30;21.33;;;14.13;;
31298;SDS011;17927;52.350;13.402;2024-03-22T08:26:56;19.77;;;13.63;;
31298;SDS011;17927;52.350;13.402;2024-03-22T08:29:21;21.48;;;14.25;;
31298;SDS011;17927;52.350;13.402;2024-03-22T08:31:46;18.67;;;13.57;;
31298;SDS011;17927;52.350;13.402;2024-03-22T08:34:12;20.65;;;14.80;;
31298;SDS011;17927;52.350;13.402;2024-03-22T08:36:37;19.58;;;14.77;;
31298;SDS011;17927;52.350;13.402;2024-03-22T08:39:02;22.33;;;14.50;;
31298;SDS011;17927;52.350;13.402;2024-03-22T08:41:27;20.05;;;13.88;;
31298;SDS011;17927;52.350;13.402;2024-03-22T08:43:53;21.02;;;14.27;;
31298;SDS011;17927;52.350;13.402;2024-03-22T08:46:18;22.25;;;13.90;;
31298;SDS011;17927;52.350;13.402;2024-03-22T08:48:44;18.75;;;14.20;;
31298;SDS011;17927;52.350;13.402;2024-03-22T08:51:09;17.42;;;13.30;;
31298;SDS011;17927;52.350;13.402;2024-03-22T08:53:34;21.15;;;14.18;;
31298;SDS011;17927;52.350;13.402;2024-03-22T08:56:00;21.15;;;13.75;;
31298;SDS011;17927;52.350;13.402;2024-03-22T08:58:25;22.42;;;15.10;;
31298;SDS011;17927;52.350;13.402;2024-03-22T09:00:51;19.13;;;14.00;;
31298;SDS011;17927;52.350;13.402;2024-03-22T09:03:16;21.88;;;14.18;;
31298;SDS011;17927;52.350;13.402;2024-03-22T09:05:43;18.33;;;12.65;;
31298;SDS011;17927;52.350;13.402;2024-03-22T09:08:08;20.40;;;14.00;;
31298;SDS011;17927;52.350;13.402;2024-03-22T09:10:34;22.17;;;13.00;;
31298;SDS011;17927;52.350;13.402;2024-03-22T09:12:59;21.38;;;13.95;;
31298;SDS011;17927;52.350;13.402;2024-03-22T09:15:24;20.42;;;13.75;;
31298;SDS011;17927;52.350;13.402;2024-03-22T09:17:51;18.63;;;13.60;;
31298;SDS011;17927;52.350;13.402;2024-03-22T09:20:17;21.38;;;13.48;;
31298;SDS011;17927;52.350;13.402;2024-03-22T09:22:42;16.63;;;13.10;;
31298;SDS011;17927;52.350;13.402;2024-03-22T09:25:07;19.77;;;13.85;;
31298;SDS011;17927;52.350;13.402;2024-03-22T09:27:32;17.88;;;13.02;;
31298;SDS011;17927;52.350;13.402;2024-03-22T09:29:58;20.23;;;13.88;;
31298;SDS011;17927;52.350;13.402;2024-03-22T09:32:23;16.80;;;12.93;;
31298;SDS011;17927;52.350;13.402;2024-03-22T09:34:49;19.05;;;14.05;;
31298;SDS011;17927;52.350;13.402;2024-03-22T09:37:17;20.85;;;14.68;;
31298;SDS011;17927;52.350;13.402;2024-03-22T09:39:42;23.73;;;12.95;;
31298;SDS011;17927;52.350;13.402;2024-03-22T09:42:09;20.02;;;13.95;;
31298;SDS011;17927;52.350;13.402;2024-03-22T09:44:40;17.63;;;13.60;;
31298;SDS011;17927;52.350;13.402;2024-03-22T09:49:39;17.38;;;12.45;;
31298;SDS011;17927;52.350;13.402;2024-03-22T09:52:04;20.88;;;13.55;;
31298;SDS011;17927;52.350;13.402;2024-03-22T09:54:31;15.93;;;13.32;;
31298;SDS011;17927;52.350;13.402;2024-03-22T09:56:57;17.00;;;13.15;;
31298;SDS011;17927;52.350;13.402;2024-03-22T09:59:23;19.35;;;13.70;;
31298;SDS011;17927;52.350;13.402;2024-03-22T10:01:49;19.25;;;12.70;;
31298;SDS011;17927;52.350;13.402;2024-03-22T10:04:15;17.67;;;12.45;;
31298;SDS011;17927;52.350;13.402;2024-03-22T10:06:41;20.13;;;12.52;;
31298;SDS011;17927;52.350;13.402;2024-03-22T10:09:06;18.70;;;13.77;;
31298;SDS011;17927;52.350;13.402;2024-03-22T10:11:33;17.38;;;12.75;;
31298;SDS011;17927;52.350;13.402;2024-03-22T10:13:59;17.63;;;12.85;;
31298;SDS011;17927;52.350;13.402;2024-03-22T10:16:25;19.50;;;13.10;;
31298;SDS011;17927;52.350;13.402;2024-03-22T10:18:50;17.23;;;12.32;;
31298;SDS011;17927;52.350;13.402;2024-03-22T10:21:18;17.30;;;12.50;;
31298;SDS011;17927;52.350;13.402;2024-03-22T10:23:44;17.52;;;12.43;;
31298;SDS011;17927;52.350;13.402;2024-03-22T10:26:11;16.55;;;13.10;;
31298;SDS011;17927;52.350;13.402;2024-03-22T10:28:37;22.20;;;13.55;;
31298;SDS011;17927;52.350;13.402;2024-03-22T10:31:10;18.20;;;13.65;;
31298;SDS011;17927;52.350;13.402;2024-03-22T10:33:36;18.42;;;12.65;;
31298;SDS011;17927;52.350;13.402;2024-03-22T10:36:01;17.60;;;12.70;;
31298;SDS011;17927;52.350;13.402;2024-03-22T10:38:27;19.65;;;12.45;;
31298;SDS011;17927;52.350;13.402;2024-03-22T10:40:54;19.35;;;13.80;;
31298;SDS011;17927;52.350;13.402;2024-03-22T10:43:21;17.85;;;12.52;;
31298;SDS011;17927;52.350;13.402;2024-03-22T10:45:47;20.48;;;12.43;;
31298;SDS011;17927;52.350;13.402;2024-03-22T10:48:13;18.35;;;13.02;;
31298;SDS011;17927;52.350;13.402;2024-03-22T10:50:42;16.08;;;12.63;;
31298;SDS011;17927;52.350;13.402;2024-03-22T10:53:08;19.08;;;13.50;;
31298;SDS011;17927;52.350;13.402;2024-03-22T10:55:43;18.15;;;12.63;;
31298;SDS011;17927;52.350;13.402;2024-03-22T10:58:17;18.25;;;11.90;;
31298;SDS011;17927;52.350;13.402;2024-03-22T11:00:42;22.77;;;13.68;;
31298;SDS011;17927;52.350;13.402;2024-03-22T11:03:08;19.10;;;13.23;;
31298;SDS011;17927;52.350;13.402;2024-03-22T11:05:33;21.27;;;13.35;;
31298;SDS011;17927;52.350;13.402;2024-03-22T11:08:05;19.38;;;13.77;;
31298;SDS011;17927;52.350;13.402;2024-03-22T11:13:18;17.83;;;12.80;;
31298;SDS011;17927;52.350;13.402;2024-03-22T11:15:46;22.80;;;13.82;;
31298;SDS011;17927;52.350;13.402;2024-03-22T11:18:12;21.67;;;14.65;;
31298;SDS011;17927;52.350;13.402;2024-03-22T11:20:38;22.52;;;14.65;;
31298;SDS011;17927;52.350;13.402;2024-03-22T11:23:06;23.23;;;14.45;;
31298;SDS011;17927;52.350;13.402;2024-03-22T11:25:32;20.83;;;13.98;;
31298;SDS011;17927;52.350;13.402;2024-03-22T11:27:58;20.25;;;13.93;;
31298;SDS011;17927;52.350;13.402;2024-03-22T11:30:24;23.52;;;14.75;;
31298;SDS011;17927;52.350;13.402;2024-03-22T11:32:49;22.30;;;14.82;;
31298;SDS011;17927;52.350;13.402;2024-03-22T11:35:15;20.42;;;14.50;;
31298;SDS011;17927;52.350;13.402;2024-03-22T11:37:40;21.58;;;14.13;;
31298;SDS011;17927;52.350;13.402;2024-03-22T11:40:08;22.77;;;15.95;;
31298;SDS011;17927;52.350;13.402;2024-03-22T11:42:35;22.17;;;14.73;;
31298;SDS011;17927;52.350;13.402;2024-03-22T11:45:01;22.02;;;14.75;;
31298;SDS011;17927;52.350;13.402;2024-03-22T11:47:27;20.65;;;14.15;;
31298;SDS011;17927;52.350;13.402;2024-03-22T11:49:53;21.40;;;13.95;;
31298;SDS011;17927;52.350;13.402;2024-03-22T11:52:24;22.27;;;15.18;;
31298;SDS011;17927;52.350;13.402;2024-03-22T11:54:50;23.63;;;14.90;;
31298;SDS011;17927;52.350;13.402;2024-03-22T11:57:17;21.08;;;14.07;;
31298;SDS011;17927;52.350;13.402;2024-03-22T11:59:42;21.70;;;14.48;;
31298;SDS011;17927;52.350;13.402;2024-03-22T12:02:08;20.40;;;14.45;;
31298;SDS011;17927;52.350;13.402;2024-03-22T12:04:34;23.58;;;14.38;;
31298;SDS011;17927;52.350;13.402;2024-03-22T12:07:00;22.42;;;14.25;;
31298;SDS011;17927;52.350;13.402;2024-03-22T12:09:25;25.75;;;15.68;;
31298;SDS011;17927;52.350;13.402;2024-03-22T12:11:50;20.60;;;13.80;;
31298;SDS011;17927;52.350;13.402;2024-03-22T12:14:15;21.77;;;14.57;;
31298;SDS011;17927;52.350;13.402;2024-03-22T12:16:41;22.85;;;15.20;;
31298;SDS011;17927;52.350;13.402;2024-03-22T12:19:06;24.23;;;14.95;;
31298;SDS011;17927;52.350;13.402;2024-03-22T12:21:31;23.50;;;15.60;;
31298;SDS011;17927;52.350;13.402;2024-03-22T12:23:57;23.45;;;15.55;;
31298;SDS011;17927;52.350;13.402;2024-03-22T12:26:22;21.67;;;14.50;;
31298;SDS011;17927;52.350;13.402;2024-03-22T12:28:47;23.40;;;14.70;;
31298;SDS011;17927;52.350;13.402;2024-03-22T12:31:13;22.92;;;13.80;;
31298;SDS011;17927;52.350;13.402;2024-03-22T12:33:38;21.67;;;14.50;;
31298;SDS011;17927;52.350;13.402;2024-03-22T12:36:03;24.25;;;14.98;;
31298;SDS011;17927;52.350;13.402;2024-03-22T12:38:29;21.40;;;14.50;;
31298;SDS011;17927;52.350;13.402;2024-03-22T12:40:54;20.67;;;15.00;;
31298;SDS011;17927;52.350;13.402;2024-03-22T12:43:19;22.33;;;14.77;;
31298;SDS011;17927;52.350;13.402;2024-03-22T12:45:44;20.20;;;13.75;;
31298;SDS011;17927;52.350;13.402;2024-03-22T12:48:10;18.42;;;13.68;;
31298;SDS011;17927;52.350;13.402;2024-03-22T12:50:35;21.92;;;13.80;;
31298;SDS011;17927;52.350;13.402;2024-03-22T12:53:00;21.60;;;14.25;;
31298;SDS011;17927;52.350;13.402;2024-03-22T12:55:26;21.88;;;15.15;;
31298;SDS011;17927;52.350;13.402;2024-03-22T12:57:53;18.98;;;13.50;;
31298;SDS011;17927;52.350;13.402;2024-03-22T13:00:18;23.35;;;14.43;;
31298;SDS011;17927;52.350;13.402;2024-03-22T13:02:44;21.20;;;14.23;;
31298;SDS011;17927;52.350;13.402;2024-03-22T13:05:10;23.60;;;15.57;;
31298;SDS011;17927;52.350;13.402;2024-03-22T13:07:35;22.30;;;14.90;;
31298;SDS011;17927;52.350;13.402;2024-03-22T13:10:01;23.25;;;15.57;;
31298;SDS011;17927;52.350;13.402;2024-03-22T13:12:26;20.83;;;14.38;;
31298;SDS011;17927;52.350;13.402;2024-03-22T13:14:53;21.60;;;13.85;;
31298;SDS011;17927;52.350;13.402;2024-03-22T13:17:19;15.95;;;11.95;;
31298;SDS011;17927;52.350;13.402;2024-03-22T13:19:45;16.27;;;10.38;;
31298;SDS011;17927;52.350;13.402;2024-03-22T13:22:10;18.80;;;11.10;;
31298;SDS011;17927;52.350;13.402;2024-03-22T13:24:37;17.45;;;11.23;;
31298;SDS011;17927;52.350;13.402;2024-03-22T13:27:02;21.63;;;11.38;;
31298;SDS011;17927;52.350;13.402;2024-03-22T13:29:28;18.35;;;12.55;;
31298;SDS011;17927;52.350;13.402;2024-03-22T13:31:53;19.05;;;12.10;;
31298;SDS011;17927;52.350;13.402;2024-03-22T13:34:18;15.02;;;10.85;;
31298;SDS011;17927;52.350;13.402;2024-03-22T13:36:43;16.55;;;11.77;;
31298;SDS011;17927;52.350;13.402;2024-03-22T13:39:09;17.77;;;11.52;;
31298;SDS011;17927;52.350;13.402;2024-03-22T13:41:36;16.52;;;10.77;;
31298;SDS011;17927;52.350;13.402;2024-03-22T13:44:01;20.67;;;12.63;;
31298;SDS011;17927;52.350;13.402;2024-03-22T13:46:31;18.85;;;12.35;;
31298;SDS011;17927;52.350;13.402;2024-03-22T13:48:56;19.02;;;12.82;;
31298;SDS011;17927;52.350;13.402;2024-03-22T13:51:21;18.88;;;12.50;;
31298;SDS011;17927;52.350;13.402;2024-03-22T13:53:46;20.33;;;12.88;;
31298;SDS011;17927;52.350;13.402;2024-03-22T13:56:12;20.45;;;13.85;;
31298;SDS011;17927;52.350;13.402;2024-03-22T13:58:37;23.70;;;13.93;;
31298;SDS011;17927;52.350;13.402;2024-03-22T14:01:03;24.02;;;14.48;;
31298;SDS011;17927;52.350;13.402;2024-03-22T14:03:28;19.98;;;13.52;;
31298;SDS011;17927;52.350;13.402;2024-03-22T14:05:53;22.88;;;15.40;;
31298;SDS011;17927;52.350;13.402;2024-03-22T14:08:18;27.02;;;16.70;;